createdAt,value
2019-02-12T00:00:42.829Z,98637.35
2019-02-12T00:03:48.609Z,98633.18
2019-02-12T00:06:54.387Z,98639.19
2019-02-12T00:10:00.344Z,98636.73
2019-02-12T00:13:06.612Z,98641.27
2019-02-12T00:16:12.366Z,98644.52
2019-02-12T00:19:18.159Z,98650.88
2019-02-12T00:22:24.029Z,98643.73
2019-02-12T00:25:29.794Z,98635.08
2019-02-12T00:28:35.636Z,98649.09
2019-02-12T00:31:41.410Z,98629.71
2019-02-12T00:34:48.074Z,98647.77
2019-02-12T00:37:53.891Z,98655.59
2019-02-12T00:40:59.696Z,98652.09
2019-02-12T00:44:08.255Z,98642.75
2019-02-12T00:47:14.027Z,98654.52
2019-02-12T00:50:19.803Z,98653.17
2019-02-12T00:53:25.592Z,98660.92
2019-02-12T00:56:32.413Z,98665.47
2019-02-12T00:59:38.245Z,98667.50
2019-02-12T01:02:44.126Z,98659.45
2019-02-12T01:05:49.895Z,98674.61
2019-02-12T01:08:55.753Z,98685.20
2019-02-12T01:12:01.640Z,98679.62
2019-02-12T01:15:09.570Z,98674.25
2019-02-12T01:18:15.560Z,98670.66
2019-02-12T01:21:26.165Z,98673.61
2019-02-12T01:24:28.942Z,98689.41
2019-02-12T01:27:34.801Z,98687.50
2019-02-12T01:30:40.663Z,98685.03
2019-02-12T01:33:46.416Z,98681.78
2019-02-12T01:36:52.193Z,98684.08
2019-02-12T01:39:57.975Z,98689.97
2019-02-12T01:43:03.776Z,98686.12
2019-02-12T01:46:09.559Z,98690.96
2019-02-12T01:49:15.339Z,98682.22
2019-02-12T01:52:21.119Z,98688.14
2019-02-12T01:55:26.901Z,98688.63
2019-02-12T01:58:32.760Z,98700.58
2019-02-12T02:01:38.552Z,98713.10
2019-02-12T02:04:44.351Z,98725.73
2019-02-12T02:07:50.137Z,98711.23
2019-02-12T02:10:55.911Z,98715.13
2019-02-12T02:14:01.680Z,98718.04
2019-02-12T02:17:07.477Z,98720.08
2019-02-12T02:20:14.163Z,98730.42
2019-02-12T02:23:20.059Z,98726.27
2019-02-12T02:26:25.856Z,98712.50
2019-02-12T02:29:31.722Z,98722.89
2019-02-12T02:32:37.577Z,98727.52
2019-02-12T02:35:43.381Z,98738.88
2019-02-12T02:38:49.166Z,98731.94
2019-02-12T02:41:55.543Z,98753.20
2019-02-12T02:45:01.350Z,98757.98
2019-02-12T02:48:07.575Z,98759.28
2019-02-12T02:51:13.369Z,98761.19
2019-02-12T02:54:19.197Z,98778.23
2019-02-12T02:57:24.955Z,98784.66
2019-02-12T03:00:30.713Z,98790.62
2019-02-12T03:03:36.618Z,98779.70
2019-02-12T03:06:42.489Z,98781.34
2019-02-12T03:09:49.361Z,98774.85
2019-02-12T03:12:55.208Z,98771.31
2019-02-12T03:16:01.037Z,98779.59
2019-02-12T03:19:06.787Z,98770.91
2019-02-12T03:22:12.601Z,98780.75
2019-02-12T03:25:18.357Z,98781.72
2019-02-12T03:28:24.117Z,98796.02
2019-02-12T03:31:29.967Z,98801.08
2019-02-12T03:34:35.745Z,98805.32
2019-02-12T03:37:41.635Z,98800.89
2019-02-12T03:40:47.389Z,98802.59
2019-02-12T03:43:53.173Z,98799.48
2019-02-12T03:46:58.978Z,98799.02
2019-02-12T03:50:04.902Z,98808.80
2019-02-12T03:53:10.777Z,98813.56
2019-02-12T03:56:16.520Z,98817.06
2019-02-12T03:59:22.377Z,98816.53
2019-02-12T04:02:28.208Z,98817.18
2019-02-12T04:05:34.214Z,98820.23
2019-02-12T04:08:40.007Z,98814.27
2019-02-12T04:11:45.894Z,98812.89
2019-02-12T04:14:51.678Z,98806.94
2019-02-12T04:17:57.434Z,98807.09
2019-02-12T04:21:03.335Z,98800.05
2019-02-12T04:24:09.111Z,98816.06
2019-02-12T04:27:14.921Z,98815.70
2019-02-12T04:30:20.707Z,98818.69
2019-02-12T04:33:26.480Z,98826.78
2019-02-12T04:36:32.304Z,98829.31
2019-02-12T04:39:39.095Z,98842.13
2019-02-12T04:42:44.894Z,98836.28
2019-02-12T04:45:50.649Z,98839.25
2019-02-12T04:49:04.871Z,98838.91
2019-02-12T04:52:13.454Z,98844.19
2019-02-12T04:55:19.354Z,98841.47
2019-02-12T04:58:25.086Z,98843.15
2019-02-12T05:01:30.837Z,98844.84
2019-02-12T05:04:36.566Z,98862.02
2019-02-12T05:07:42.397Z,98872.58
2019-02-12T05:10:56.823Z,98880.72
2019-02-12T05:14:02.576Z,98881.48
2019-02-12T05:17:08.309Z,98889.23
2019-02-12T05:20:14.554Z,98897.52
2019-02-12T05:23:20.357Z,98905.45
2019-02-12T05:26:26.099Z,98914.85
2019-02-12T05:29:32.019Z,98909.41
2019-02-12T05:32:37.806Z,98909.39
2019-02-12T05:35:43.557Z,98917.09
2019-02-12T05:38:49.421Z,98912.77
2019-02-12T05:41:55.183Z,98912.63
2019-02-12T05:45:00.953Z,98920.77
2019-02-12T05:48:06.760Z,98921.64
2019-02-12T05:51:12.641Z,98909.75
2019-02-12T05:54:18.422Z,98919.53
2019-02-12T05:57:24.183Z,98924.53
2019-02-12T06:00:32.478Z,98943.56
2019-02-12T06:03:38.259Z,98931.22
2019-02-12T06:06:44.022Z,98937.43
2019-02-12T06:09:49.844Z,98950.34
2019-02-12T06:12:55.690Z,98953.30
2019-02-12T06:16:01.442Z,98943.75
2019-02-12T06:19:07.194Z,98948.84
2019-02-12T06:22:12.954Z,98947.17
2019-02-12T06:25:18.972Z,98949.14
2019-02-12T06:28:24.732Z,98951.16
2019-02-12T06:31:30.502Z,98947.60
2019-02-12T06:34:36.237Z,98960.41
2019-02-12T06:37:41.996Z,98965.69
2019-02-12T06:40:47.789Z,98970.28
2019-02-12T06:43:53.532Z,98960.88
2019-02-12T06:46:59.299Z,98968.56
2019-02-12T06:50:05.545Z,98979.59
2019-02-12T06:53:12.745Z,98977.27
2019-02-12T06:56:18.793Z,98978.22
2019-02-12T06:59:24.553Z,98976.14
2019-02-12T07:03:05.913Z,98990.80
2019-02-12T07:06:39.953Z,98994.45
2019-02-12T07:09:49.807Z,99003.92
2019-02-12T07:13:39.553Z,99000.45
2019-02-12T07:17:12.276Z,99006.48
2019-02-12T07:20:45.604Z,99010.13
2019-02-12T07:24:31.763Z,99002.27
2019-02-12T07:28:20.356Z,98996.71
2019-02-12T07:32:18.916Z,99007.08
2019-02-12T07:35:51.835Z,98997.78
2019-02-12T07:39:09.991Z,98989.59
2019-02-12T07:42:55.526Z,98992.98
2019-02-12T07:46:30.424Z,98995.78
2019-02-12T07:50:10.878Z,98985.20
2019-02-12T07:53:40.389Z,98982.79
2019-02-12T07:57:31.431Z,98987.07
2019-02-12T08:01:26.073Z,98987.37
2019-02-12T08:05:29.348Z,98993.85
2019-02-12T08:09:11.513Z,98998.14
2019-02-12T08:12:43.824Z,98989.64
2019-02-12T08:16:29.742Z,99005.88
2019-02-12T08:20:12.880Z,99009.48
2019-02-12T08:23:56.381Z,99008.39
2019-02-12T08:27:27.906Z,99005.05
2019-02-12T08:31:01.368Z,99012.38
2019-02-12T08:34:45.062Z,99014.06
2019-02-12T08:38:27.136Z,99014.94
2019-02-12T08:42:01.838Z,99019.55
2019-02-12T08:45:42.880Z,99018.72
2019-02-12T08:49:18.202Z,99027.02
2019-02-12T08:52:54.211Z,99034.95
2019-02-12T08:56:34.846Z,99039.61
2019-02-12T09:00:06.840Z,99025.97
2019-02-12T09:04:09.576Z,99031.00
2019-02-12T09:07:29.883Z,99034.68
2019-02-12T09:11:08.847Z,99032.52
2019-02-12T09:14:51.245Z,99026.16
2019-02-12T09:18:39.911Z,99042.75
2019-02-12T09:22:12.682Z,99054.34
2019-02-12T09:25:55.793Z,99062.31
2019-02-12T09:29:29.732Z,99056.34
2019-02-12T09:33:00.496Z,99069.34
2019-02-12T09:36:43.844Z,99076.38
2019-02-12T09:40:35.352Z,99068.86
2019-02-12T09:44:13.772Z,99074.98
2019-02-12T09:47:55.875Z,99082.47
2019-02-12T09:51:29.371Z,99086.55
2019-02-12T09:55:31.400Z,99083.12
2019-02-12T09:59:04.253Z,99088.78
2019-02-12T10:02:54.980Z,99094.72
2019-02-12T10:06:21.320Z,99101.72
2019-02-12T10:09:48.989Z,99095.00
2019-02-12T10:13:29.737Z,99105.95
2019-02-12T10:17:19.026Z,99093.30
2019-02-12T10:20:46.774Z,99103.85
2019-02-12T10:24:33.444Z,99089.98
2019-02-12T10:28:22.935Z,99107.22
2019-02-12T10:31:42.687Z,99111.99
2019-02-12T10:34:49.541Z,99108.22
2019-02-12T10:37:55.316Z,99113.97
2019-02-12T10:41:01.430Z,99093.98
2019-02-12T10:44:07.383Z,99107.97
2019-02-12T10:47:13.340Z,99111.20
2019-02-12T10:50:19.191Z,99118.20
2019-02-12T10:53:25.001Z,99115.59
2019-02-12T10:56:30.923Z,99137.53
2019-02-12T10:59:36.680Z,99126.77
2019-02-12T11:02:42.592Z,99123.15
2019-02-12T11:05:48.520Z,99115.97
2019-02-12T11:08:54.316Z,99129.03
2019-02-12T11:12:00.240Z,99135.38
2019-02-12T11:15:07.778Z,99146.99
2019-02-12T11:18:13.556Z,99143.73
2019-02-12T11:21:19.326Z,99148.28
2019-02-12T11:24:25.081Z,99159.08
2019-02-12T11:27:30.860Z,99160.10
2019-02-12T11:30:36.709Z,99175.48
2019-02-12T11:33:42.489Z,99175.61
2019-02-12T11:36:48.227Z,99168.59
2019-02-12T11:39:53.989Z,99173.67
2019-02-12T11:42:59.792Z,99191.98
2019-02-12T11:46:05.670Z,99198.66
2019-02-12T11:49:11.451Z,99207.21
2019-02-12T11:52:17.201Z,99209.32
2019-02-12T11:55:22.963Z,99209.98
2019-02-12T11:58:28.777Z,99216.40
2019-02-12T12:01:34.556Z,99221.42
2019-02-12T12:04:40.350Z,99225.61
2019-02-12T12:07:46.112Z,99227.17
2019-02-12T12:10:51.864Z,99233.01
2019-02-12T12:13:57.725Z,99236.25
2019-02-12T12:17:03.499Z,99250.27
2019-02-12T12:20:10.605Z,99255.75
2019-02-12T12:23:16.368Z,99249.04
2019-02-12T12:26:22.123Z,99251.63
2019-02-12T12:29:27.867Z,99263.98
2019-02-12T12:32:33.626Z,99254.75
2019-02-12T12:35:39.430Z,99279.20
2019-02-12T12:38:45.181Z,99280.27
2019-02-12T12:41:50.979Z,99285.32
2019-02-12T12:44:56.746Z,99282.13
2019-02-12T12:48:02.685Z,99291.95
2019-02-12T12:51:08.468Z,99293.98
2019-02-12T12:54:14.270Z,99295.66
2019-02-12T12:57:20.088Z,99302.67
2019-02-12T13:00:25.953Z,99308.51
2019-02-12T13:03:31.842Z,99303.52
2019-02-12T13:06:37.666Z,99314.91
2019-02-12T13:09:43.443Z,99310.70
2019-02-12T13:12:49.230Z,99320.66
2019-02-12T13:15:55.132Z,99331.22
2019-02-12T13:19:00.899Z,99334.69
2019-02-12T13:22:06.809Z,99338.38
2019-02-12T13:25:12.779Z,99337.27
2019-02-12T13:28:18.921Z,99353.16
2019-02-12T13:31:24.690Z,99351.91
2019-02-12T13:34:30.580Z,99349.86
2019-02-12T13:37:36.442Z,99359.09
2019-02-12T13:40:42.314Z,99365.31
2019-02-12T13:43:48.211Z,99374.67
2019-02-12T13:46:54.005Z,99378.75
2019-02-12T13:49:59.782Z,99384.05
2019-02-12T13:53:05.561Z,99393.28
2019-02-12T13:56:11.384Z,99408.06
2019-02-12T13:59:17.268Z,99406.36
2019-02-12T14:02:23.081Z,99403.36
2019-02-12T14:05:28.877Z,99416.81
2019-02-12T14:08:34.682Z,99414.47
2019-02-12T14:11:40.486Z,99419.38
2019-02-12T14:14:46.297Z,99427.19
2019-02-12T14:17:52.091Z,99420.84
2019-02-12T14:20:58.016Z,99427.00
2019-02-12T14:24:03.897Z,99427.19
2019-02-12T14:27:09.922Z,99444.72
2019-02-12T14:30:15.833Z,99433.55
2019-02-12T14:33:21.657Z,99444.73
2019-02-12T14:36:27.488Z,99454.03
2019-02-12T14:39:33.354Z,99453.72
2019-02-12T14:42:39.208Z,99473.84
2019-02-12T14:45:45.003Z,99481.65
2019-02-12T14:48:50.771Z,99479.88
2019-02-12T14:51:56.628Z,99491.44
2019-02-12T14:55:02.412Z,99494.11
2019-02-12T14:58:08.392Z,99498.33
2019-02-12T15:01:14.272Z,99504.27
2019-02-12T15:04:20.154Z,99514.58
2019-02-12T15:07:26.106Z,99515.32
2019-02-12T15:10:31.965Z,99515.42
2019-02-12T15:13:41.382Z,99519.23
2019-02-12T15:16:47.167Z,99519.48
2019-02-12T15:19:53.128Z,99526.74
2019-02-12T15:22:58.922Z,99535.48
2019-02-12T15:26:04.843Z,99539.95
2019-02-12T15:29:10.637Z,99546.16
2019-02-12T15:32:16.459Z,99545.47
2019-02-12T15:35:22.348Z,99556.34
2019-02-12T15:38:28.133Z,99564.80
2019-02-12T15:41:34.054Z,99561.14
2019-02-12T15:44:39.878Z,99560.30
2019-02-12T15:47:45.795Z,99571.48
2019-02-12T15:50:51.783Z,99580.83
2019-02-12T15:53:57.621Z,99591.72
2019-02-12T15:57:03.450Z,99596.98
2019-02-12T16:00:15.673Z,99605.13
2019-02-12T16:03:22.568Z,99620.02
2019-02-12T16:06:28.364Z,99621.58
2019-02-12T16:09:35.081Z,99629.19
2019-02-12T16:12:41.081Z,99631.58
2019-02-12T16:15:47.175Z,99640.95
2019-02-12T16:18:53.071Z,99650.93
2019-02-12T16:21:58.923Z,99667.14
2019-02-12T16:25:04.990Z,99673.84
2019-02-12T16:28:10.827Z,99682.74
2019-02-12T16:31:18.567Z,99680.03
2019-02-12T16:34:24.302Z,99697.05
2019-02-12T16:37:30.129Z,99710.04
2019-02-12T16:40:35.953Z,99717.00
2019-02-12T16:43:41.747Z,99724.27
2019-02-12T16:46:47.604Z,99728.70
2019-02-12T16:49:53.364Z,99738.60
2019-02-12T16:52:59.277Z,99747.88
2019-02-12T16:56:08.371Z,99756.63
2019-02-12T16:59:12.738Z,99764.81
2019-02-12T17:02:18.664Z,99769.20
2019-02-12T17:05:24.463Z,99771.59
2019-02-12T17:08:30.258Z,99780.20
2019-02-12T17:11:36.059Z,99782.56
2019-02-12T17:14:41.976Z,99792.71
2019-02-12T17:17:47.748Z,99801.00
2019-02-12T17:20:53.553Z,99800.17
2019-02-12T17:23:59.698Z,99803.23
2019-02-12T17:27:05.613Z,99811.16
2019-02-12T17:30:12.932Z,99813.62
2019-02-12T17:33:19.713Z,99826.04
2019-02-12T17:36:25.607Z,99823.81
2019-02-12T17:39:31.465Z,99826.97
2019-02-12T17:42:37.284Z,99837.61
2019-02-12T17:45:43.246Z,99831.48
2019-02-12T17:48:49.143Z,99836.74
2019-02-12T17:51:56.371Z,99833.32
2019-02-12T17:55:02.278Z,99837.94
2019-02-12T17:58:08.023Z,99845.59
2019-02-12T18:01:14.007Z,99845.73
2019-02-12T18:04:22.073Z,99850.94
2019-02-12T18:07:27.874Z,99845.75
2019-02-12T18:10:33.880Z,99843.96
2019-02-12T18:13:39.850Z,99847.38
2019-02-12T18:16:45.697Z,99849.30
2019-02-12T18:19:52.371Z,99853.41
2019-02-12T18:23:00.134Z,99848.99
2019-02-12T18:26:05.957Z,99855.48
2019-02-12T18:29:11.809Z,99853.81
2019-02-12T18:32:19.309Z,99861.27
2019-02-12T18:35:25.127Z,99874.94
2019-02-12T18:38:30.965Z,99880.32
2019-02-12T18:41:38.552Z,99869.62
2019-02-12T18:44:44.387Z,99874.55
2019-02-12T18:47:52.797Z,99880.48
2019-02-12T18:50:58.599Z,99876.31
2019-02-12T18:54:04.490Z,99890.03
2019-02-12T18:57:10.421Z,99889.14
2019-02-12T19:00:18.811Z,99891.19
2019-02-12T19:03:24.721Z,99895.84
2019-02-12T19:06:31.607Z,99890.70
2019-02-12T19:09:37.383Z,99898.30
2019-02-12T19:12:43.160Z,99904.76
2019-02-12T19:15:50.483Z,99911.85
2019-02-12T19:18:56.428Z,99901.46
2019-02-12T19:22:02.839Z,99918.00
2019-02-12T19:25:11.167Z,99926.19
2019-02-12T19:28:17.447Z,99925.26
2019-02-12T19:31:24.481Z,99935.59
2019-02-12T19:34:30.312Z,99938.14
2019-02-12T19:37:36.339Z,99945.46
2019-02-12T19:40:43.076Z,99949.89
2019-02-12T19:43:48.954Z,99949.09
2019-02-12T19:46:54.842Z,99950.80
2019-02-12T19:50:00.647Z,99958.07
2019-02-12T19:53:07.837Z,99956.61
2019-02-12T19:56:13.691Z,99960.20
2019-02-12T19:59:19.566Z,99959.11
2019-02-12T20:02:25.394Z,99960.14
2019-02-12T20:05:31.189Z,99955.09
2019-02-12T20:08:38.412Z,99952.42
2019-02-12T20:11:44.569Z,99953.33
2019-02-12T20:14:50.365Z,99949.28
2019-02-12T20:17:58.806Z,99957.43
2019-02-12T20:21:06.277Z,99949.44
2019-02-12T20:24:12.186Z,99950.05
2019-02-12T20:27:18.021Z,99955.95
2019-02-12T20:30:27.435Z,99958.26
2019-02-12T20:33:33.323Z,99966.53
2019-02-12T20:36:40.359Z,99975.51
2019-02-12T20:39:48.852Z,99978.81
2019-02-12T20:42:56.127Z,99975.00
2019-02-12T20:46:01.985Z,99972.89
2019-02-12T20:49:08.092Z,99976.34
2019-02-12T20:52:13.990Z,99985.28
2019-02-12T20:55:20.043Z,99984.02
2019-02-12T20:58:25.970Z,99982.41
2019-02-12T21:01:31.894Z,99990.95
2019-02-12T21:04:40.240Z,99987.30
2019-02-12T21:07:46.207Z,99995.57
2019-02-12T21:10:52.050Z,99993.16
2019-02-12T21:13:57.855Z,99994.20
2019-02-12T21:17:03.665Z,100003.31
2019-02-12T21:20:10.652Z,99997.47
2019-02-12T21:23:16.610Z,100009.30
2019-02-12T21:26:22.502Z,100005.30
2019-02-12T21:29:28.257Z,100014.38
2019-02-12T21:32:34.042Z,100012.29
2019-02-12T21:35:39.781Z,100011.63
2019-02-12T21:38:45.552Z,100016.07
2019-02-12T21:41:51.370Z,100027.95
2019-02-12T21:44:57.139Z,100022.97
2019-02-12T21:48:02.981Z,100034.22
2019-02-12T21:51:08.782Z,100035.72
2019-02-12T21:54:14.725Z,100037.33
2019-02-12T21:57:20.613Z,100045.98
2019-02-12T22:00:26.507Z,100043.38
2019-02-12T22:03:32.342Z,100053.60
2019-02-12T22:06:38.120Z,100054.06
2019-02-12T22:09:43.897Z,100049.70
2019-02-12T22:12:49.758Z,100050.02
2019-02-12T22:15:55.576Z,100056.38
2019-02-12T22:19:01.335Z,100054.73
2019-02-12T22:22:07.202Z,100053.01
2019-02-12T22:25:13.127Z,100055.41
2019-02-12T22:28:18.897Z,100058.19
2019-02-12T22:31:24.719Z,100061.13
2019-02-12T22:34:30.504Z,100061.34
2019-02-12T22:37:36.330Z,100062.59
2019-02-12T22:40:42.131Z,100074.46
2019-02-12T22:43:47.924Z,100064.52
2019-02-12T22:46:54.715Z,100064.30
2019-02-12T22:50:00.583Z,100067.27
2019-02-12T22:53:06.371Z,100069.70
2019-02-12T22:56:12.179Z,100074.25
2019-02-12T22:59:18.003Z,100077.46
2019-02-12T23:02:23.961Z,100077.55
2019-02-12T23:05:29.928Z,100081.14
2019-02-12T23:08:35.823Z,100084.31
2019-02-12T23:11:41.616Z,100086.87
2019-02-12T23:14:47.486Z,100087.45
2019-02-12T23:17:53.288Z,100094.92
2019-02-12T23:20:59.096Z,100086.49
2019-02-12T23:24:05.025Z,100089.38
2019-02-12T23:27:10.897Z,100096.94
2019-02-12T23:30:16.798Z,100098.91
2019-02-12T23:33:22.569Z,100099.90
2019-02-12T23:36:28.475Z,100109.10
2019-02-12T23:39:34.283Z,100115.41
2019-02-12T23:42:40.078Z,100109.30
2019-02-12T23:45:45.903Z,100110.95
2019-02-12T23:48:51.694Z,100111.76
2019-02-12T23:51:57.484Z,100120.79
2019-02-12T23:55:03.275Z,100134.55
2019-02-12T23:58:09.137Z,100132.25
